Time,TemperatureF,DewpointF,PressureIn,WindDirection,WindDirectionDegrees,WindSpeedMPH,WindSpeedGustMPH,Humidity,HourlyPrecipIn,Conditions,Clouds,dailyrainin,SoftwareType,DateUTC
2013-05-19 00:02:00,77.0,69.0,29.77,South,169,0.0,0.0,77,0.00,,,0.00,,2013-05-19 05:02:00,
2013-05-19 00:12:00,77.0,69.0,29.77,South,169,0.0,0.0,77,0.00,,,0.00,,2013-05-19 05:12:00,
2013-05-19 00:22:00,77.0,69.0,29.77,SSE,163,0.0,0.0,77,0.00,,,0.00,,2013-05-19 05:22:00,
2013-05-19 00:32:00,78.0,70.0,29.77,SSE,167,0.0,0.0,77,0.00,,,0.00,,2013-05-19 05:32:00,
2013-05-19 00:42:00,77.0,70.0,29.77,SW,236,6.0,6.0,79,0.00,,,0.00,,2013-05-19 05:42:00,
2013-05-19 00:51:00,77.0,70.0,29.77,SW,236,6.0,6.0,79,0.00,,,0.00,,2013-05-19 05:51:00,
2013-05-19 01:02:00,66.0,60.0,29.84,South,177,2.0,2.0,81,0.04,,,0.04,,2013-05-19 06:02:00,
2013-05-19 01:21:00,64.0,60.0,29.82,SSE,148,0.0,0.0,87,0.06,,,0.06,,2013-05-19 06:21:00,
2013-05-19 01:32:00,63.0,59.0,29.82,SSE,148,2.0,2.0,88,0.07,,,0.07,,2013-05-19 06:32:00,
2013-05-19 01:52:00,63.0,59.0,29.81,SSE,148,0.0,0.0,88,0.07,,,0.07,,2013-05-19 06:52:00,
2013-05-19 02:01:00,63.0,60.0,29.80,SSE,148,0.0,0.0,89,0.07,,,0.07,,2013-05-19 07:01:00,
2013-05-19 02:11:00,63.0,60.0,29.80,SSE,148,0.0,0.0,89,0.07,,,0.07,,2013-05-19 07:11:00,
2013-05-19 02:21:00,63.0,60.0,29.80,SSE,148,0.0,0.0,90,0.03,,,0.07,,2013-05-19 07:21:00,
2013-05-19 02:32:00,63.0,60.0,29.78,SSE,148,0.0,0.0,91,0.02,,,0.08,,2013-05-19 07:32:00,
2013-05-19 02:42:00,63.0,60.0,29.78,SSE,148,0.0,0.0,91,0.02,,,0.08,,2013-05-19 07:42:00,
2013-05-19 02:52:00,63.0,61.0,29.77,SSE,148,0.0,0.0,92,0.01,,,0.08,,2013-05-19 07:52:00,
2013-05-19 03:01:00,63.0,61.0,29.74,SSE,148,0.0,0.0,92,0.01,,,0.08,,2013-05-19 08:01:00,
2013-05-19 03:12:00,63.0,61.0,29.74,SSE,148,0.0,0.0,92,0.01,,,0.08,,2013-05-19 08:12:00,
2013-05-19 03:22:00,63.0,61.0,29.74,SSE,148,0.0,0.0,92,0.01,,,0.08,,2013-05-19 08:22:00,
2013-05-19 03:32:00,62.0,60.0,29.73,SSE,148,0.0,0.0,92,0.01,,,0.08,,2013-05-19 08:32:00,
2013-05-19 03:42:00,62.0,60.0,29.73,SSE,148,0.0,0.0,92,0.01,,,0.08,,2013-05-19 08:42:00,
2013-05-19 03:52:00,62.0,60.0,29.71,SSE,148,0.0,0.0,93,0.00,,,0.08,,2013-05-19 08:52:00,
2013-05-19 04:02:00,62.0,60.0,29.72,SSE,148,0.0,0.0,93,0.00,,,0.08,,2013-05-19 09:02:00,
2013-05-19 04:12:00,62.0,60.0,29.72,SSE,148,0.0,0.0,93,0.00,,,0.08,,2013-05-19 09:12:00,
2013-05-19 04:21:00,62.0,60.0,29.72,SSE,148,0.0,0.0,93,0.00,,,0.08,,2013-05-19 09:21:00,
2013-05-19 04:32:00,62.0,60.0,29.74,SSE,148,0.0,0.0,93,0.00,,,0.08,,2013-05-19 09:32:00,
2013-05-19 04:43:00,62.0,60.0,29.74,SSE,148,0.0,0.0,93,0.00,,,0.08,,2013-05-19 09:43:00,
2013-05-19 04:53:00,62.0,60.0,29.74,SSE,148,0.0,0.0,93,0.00,,,0.08,,2013-05-19 09:53:00,
2013-05-19 05:02:00,62.0,60.0,29.74,SSE,148,0.0,0.0,94,0.00,,,0.08,,2013-05-19 10:02:00,
2013-05-19 05:12:00,62.0,60.0,29.74,SSE,148,0.0,0.0,94,0.00,,,0.08,,2013-05-19 10:12:00,
2013-05-19 05:22:00,62.0,60.0,29.74,SSE,148,0.0,0.0,94,0.00,,,0.08,,2013-05-19 10:22:00,
2013-05-19 05:33:00,62.0,60.0,29.72,SSE,148,0.0,0.0,94,0.00,,,0.08,,2013-05-19 10:33:00,
2013-05-19 05:42:00,62.0,60.0,29.72,SSE,148,0.0,0.0,94,0.00,,,0.08,,2013-05-19 10:42:00,
2013-05-19 05:52:00,62.0,60.0,29.70,SSE,148,0.0,0.0,94,0.00,,,0.08,,2013-05-19 10:52:00,
2013-05-19 06:02:00,62.0,60.0,29.67,SSE,149,0.0,0.0,94,0.00,,,0.08,,2013-05-19 11:02:00,
2013-05-19 06:12:00,62.0,60.0,29.67,SSE,149,0.0,0.0,94,0.00,,,0.08,,2013-05-19 11:12:00,
2013-05-19 06:21:00,62.0,60.0,29.69,SSE,149,0.0,0.0,94,0.00,,,0.08,,2013-05-19 11:21:00,
2013-05-19 06:32:00,62.0,60.0,29.68,SSE,149,0.0,0.0,94,0.00,,,0.08,,2013-05-19 11:32:00,
2013-05-19 06:42:00,62.0,60.0,29.68,SSE,149,0.0,0.0,94,0.00,,,0.08,,2013-05-19 11:42:00,
2013-05-19 06:52:00,62.0,60.0,29.67,SSE,149,0.0,0.0,94,0.00,,,0.08,,2013-05-19 11:52:00,
2013-05-19 07:01:00,62.0,60.0,29.67,SSE,149,0.0,0.0,94,0.00,,,0.08,,2013-05-19 12:01:00,
2013-05-19 07:11:00,62.0,60.0,29.67,SSE,149,0.0,0.0,94,0.00,,,0.08,,2013-05-19 12:11:00,
2013-05-19 07:22:00,63.0,61.0,29.69,SSE,150,0.0,0.0,94,0.00,,,0.08,,2013-05-19 12:22:00,
2013-05-19 07:32:00,63.0,61.0,29.71,SSE,159,7.0,7.0,94,0.01,,,0.09,,2013-05-19 12:32:00,
2013-05-19 07:42:00,63.0,61.0,29.71,SSE,159,7.0,7.0,94,0.01,,,0.09,,2013-05-19 12:42:00,
2013-05-19 07:52:00,64.0,62.0,29.74,South,191,13.0,13.0,93,0.02,,,0.10,,2013-05-19 12:52:00,
2013-05-19 08:01:00,65.0,62.0,29.74,SSE,148,6.0,6.0,90,0.03,,,0.10,,2013-05-19 13:01:00,
2013-05-19 08:11:00,65.0,62.0,29.74,SSE,148,6.0,6.0,90,0.03,,,0.10,,2013-05-19 13:11:00,
2013-05-19 08:21:00,65.0,61.0,29.72,SSE,166,0.0,0.0,88,0.04,,,0.12,,2013-05-19 13:21:00,
2013-05-19 08:32:00,65.0,61.0,29.68,SSE,151,6.0,6.0,88,0.05,,,0.13,,2013-05-19 13:32:00,
2013-05-19 08:42:00,65.0,61.0,29.68,SSE,151,6.0,6.0,88,0.05,,,0.13,,2013-05-19 13:42:00,
2013-05-19 08:52:00,65.0,62.0,29.64,SSE,165,0.0,0.0,89,0.05,,,0.14,,2013-05-19 13:52:00,
2013-05-19 09:02:00,65.0,62.0,29.63,South,184,0.0,0.0,90,0.04,,,0.14,,2013-05-19 14:02:00,
2013-05-19 09:11:00,65.0,62.0,29.63,South,184,0.0,0.0,90,0.04,,,0.14,,2013-05-19 14:11:00,
2013-05-19 09:21:00,65.0,62.0,29.63,South,171,5.0,5.0,91,0.03,,,0.14,,2013-05-19 14:21:00,
2013-05-19 09:32:00,65.0,62.0,29.66,SSE,166,3.0,3.0,90,0.02,,,0.14,,2013-05-19 14:32:00,
2013-05-19 09:42:00,65.0,62.0,29.66,SSE,166,3.0,3.0,90,0.02,,,0.14,,2013-05-19 14:42:00,
2013-05-19 09:51:00,66.0,62.0,29.66,SSE,165,1.0,1.0,88,0.02,,,0.15,,2013-05-19 14:51:00,
2013-05-19 10:01:00,66.0,62.0,29.66,SSE,165,1.0,1.0,88,0.02,,,0.15,,2013-05-19 15:01:00,
2013-05-19 10:11:00,66.0,62.0,29.66,SSE,165,1.0,1.0,88,0.02,,,0.15,,2013-05-19 15:11:00,
2013-05-19 10:21:00,70.0,62.0,29.64,SSW,192,13.0,13.0,75,0.01,,,0.15,,2013-05-19 15:21:00,
2013-05-19 10:33:00,72.0,62.0,29.62,SSE,159,9.0,9.0,70,0.01,,,0.15,,2013-05-19 15:33:00,
2013-05-19 10:43:00,72.0,62.0,29.62,SSE,159,9.0,9.0,70,0.01,,,0.15,,2013-05-19 15:43:00,
2013-05-19 10:53:00,73.0,62.0,29.62,South,175,14.0,14.0,68,0.01,,,0.15,,2013-05-19 15:53:00,
2013-05-19 11:03:00,74.0,63.0,29.62,South,171,9.0,9.0,68,0.00,,,0.15,,2013-05-19 16:03:00,
2013-05-19 11:12:00,74.0,63.0,29.62,South,171,9.0,9.0,68,0.00,,,0.15,,2013-05-19 16:12:00,
2013-05-19 11:23:00,75.0,61.0,29.62,SSW,200,16.0,16.0,62,0.00,,,0.15,,2013-05-19 16:23:00,
2013-05-19 11:32:00,76.0,61.0,29.62,SSW,196,2.0,2.0,60,0.00,,,0.15,,2013-05-19 16:32:00,
2013-05-19 11:42:00,76.0,61.0,29.62,SSW,196,2.0,2.0,60,0.00,,,0.15,,2013-05-19 16:42:00,
2013-05-19 11:52:00,76.0,62.0,29.64,SSE,167,9.0,9.0,61,0.00,,,0.15,,2013-05-19 16:52:00,
2013-05-19 12:02:00,77.0,62.0,29.64,South,169,4.0,4.0,59,0.00,,,0.15,,2013-05-19 17:02:00,
2013-05-19 12:12:00,77.0,62.0,29.64,South,169,4.0,4.0,59,0.00,,,0.15,,2013-05-19 17:12:00,
2013-05-19 12:22:00,78.0,62.0,29.65,South,173,13.0,13.0,59,0.00,,,0.15,,2013-05-19 17:22:00,
2013-05-19 12:32:00,78.0,63.0,29.64,SE,126,4.0,4.0,61,0.00,,,0.15,,2013-05-19 17:32:00,
2013-05-19 12:42:00,78.0,63.0,29.64,SE,126,4.0,4.0,61,0.00,,,0.15,,2013-05-19 17:42:00,
2013-05-19 12:52:00,79.0,64.0,29.65,SSE,160,8.0,8.0,60,0.00,,,0.15,,2013-05-19 17:52:00,
2013-05-19 13:02:00,80.0,64.0,29.65,South,172,16.0,16.0,58,0.00,,,0.15,,2013-05-19 18:02:00,
2013-05-19 13:12:00,80.0,64.0,29.65,South,172,16.0,16.0,58,0.00,,,0.15,,2013-05-19 18:12:00,
2013-05-19 13:22:00,79.0,65.0,29.64,South,190,7.0,7.0,62,0.00,,,0.15,,2013-05-19 18:22:00,
2013-05-19 13:32:00,79.0,67.0,29.64,South,173,14.0,14.0,66,0.00,,,0.15,,2013-05-19 18:32:00,
2013-05-19 13:42:00,79.0,67.0,29.64,South,173,14.0,14.0,66,0.00,,,0.15,,2013-05-19 18:42:00,
2013-05-19 13:52:00,79.0,68.0,29.63,SE,132,7.0,7.0,68,0.00,,,0.15,,2013-05-19 18:52:00,
2013-05-19 14:01:00,79.0,68.0,29.63,SSE,165,13.0,13.0,68,0.00,,,0.15,,2013-05-19 19:01:00,
2013-05-19 14:11:00,79.0,68.0,29.63,SSE,165,13.0,13.0,68,0.00,,,0.15,,2013-05-19 19:11:00,
2013-05-19 14:22:00,78.0,67.0,29.64,South,182,10.0,10.0,68,0.00,,,0.15,,2013-05-19 19:22:00,
2013-05-19 14:32:00,78.0,66.0,29.64,SE,146,11.0,11.0,67,0.00,,,0.15,,2013-05-19 19:32:00,
2013-05-19 14:42:00,78.0,66.0,29.64,SE,146,11.0,11.0,67,0.00,,,0.15,,2013-05-19 19:42:00,
2013-05-19 14:52:00,79.0,67.0,29.63,SSE,161,9.0,9.0,67,0.00,,,0.15,,2013-05-19 19:52:00,
2013-05-19 15:02:00,78.0,67.0,29.63,South,182,10.0,10.0,69,0.00,,,0.15,,2013-05-19 20:02:00,
2013-05-19 15:11:00,78.0,67.0,29.63,South,182,10.0,10.0,69,0.00,,,0.15,,2013-05-19 20:11:00,
2013-05-19 15:21:00,78.0,67.0,29.63,South,169,6.0,6.0,70,0.00,,,0.15,,2013-05-19 20:21:00,
2013-05-19 15:32:00,79.0,69.0,29.63,SSE,167,6.0,6.0,71,0.00,,,0.15,,2013-05-19 20:32:00,
2013-05-19 15:42:00,79.0,69.0,29.63,SSE,167,6.0,6.0,71,0.00,,,0.15,,2013-05-19 20:42:00,
2013-05-19 15:52:00,79.0,68.0,29.61,South,172,15.0,15.0,69,0.00,,,0.15,,2013-05-19 20:52:00,
2013-05-19 16:02:00,79.0,68.0,29.60,South,177,5.0,5.0,68,0.00,,,0.15,,2013-05-19 21:02:00,
2013-05-19 16:11:00,79.0,68.0,29.60,South,177,5.0,5.0,68,0.00,,,0.15,,2013-05-19 21:11:00,
2013-05-19 16:22:00,79.0,67.0,29.60,South,178,12.0,12.0,67,0.00,,,0.15,,2013-05-19 21:22:00,
2013-05-19 16:32:00,80.0,68.0,29.59,SSE,152,4.0,4.0,67,0.00,,,0.15,,2013-05-19 21:32:00,
2013-05-19 16:43:00,80.0,68.0,29.59,SSE,152,4.0,4.0,67,0.00,,,0.15,,2013-05-19 21:43:00,
2013-05-19 16:53:00,79.0,67.0,29.57,South,173,6.0,6.0,66,0.00,,,0.15,,2013-05-19 21:53:00,
2013-05-19 17:03:00,79.0,68.0,29.58,South,176,5.0,5.0,68,0.00,,,0.15,,2013-05-19 22:03:00,
2013-05-19 17:12:00,79.0,68.0,29.58,South,176,5.0,5.0,68,0.00,,,0.15,,2013-05-19 22:12:00,
2013-05-19 17:23:00,79.0,67.0,29.58,South,170,4.0,4.0,67,0.00,,,0.15,,2013-05-19 22:23:00,
2013-05-19 17:33:00,79.0,68.0,29.55,South,171,3.0,3.0,68,0.00,,,0.15,,2013-05-19 22:33:00,
2013-05-19 17:42:00,79.0,68.0,29.55,South,171,3.0,3.0,68,0.00,,,0.15,,2013-05-19 22:42:00,
2013-05-19 17:52:00,79.0,68.0,29.55,South,173,0.0,0.0,70,0.00,,,0.15,,2013-05-19 22:52:00,
2013-05-19 18:02:00,79.0,68.0,29.54,SSE,168,3.0,3.0,69,0.00,,,0.15,,2013-05-19 23:02:00,
2013-05-19 18:11:00,79.0,68.0,29.54,SSE,168,3.0,3.0,69,0.00,,,0.15,,2013-05-19 23:11:00,
2013-05-19 18:21:00,79.0,68.0,29.54,South,183,7.0,7.0,69,0.00,,,0.15,,2013-05-19 23:21:00,
2013-05-19 18:32:00,79.0,67.0,29.55,SSE,157,6.0,6.0,67,0.00,,,0.15,,2013-05-19 23:32:00,
2013-05-19 18:42:00,79.0,68.0,29.54,SSE,168,10.0,10.0,69,0.00,,,0.15,,2013-05-19 23:42:00,
2013-05-19 18:52:00,79.0,68.0,29.54,SSE,168,10.0,10.0,69,0.00,,,0.15,,2013-05-19 23:52:00,
2013-05-19 19:02:00,77.0,68.0,29.57,SSW,194,2.0,2.0,74,0.01,,,0.16,,2013-05-20 00:02:00,
2013-05-19 19:11:00,77.0,68.0,29.57,SSW,194,2.0,2.0,74,0.01,,,0.16,,2013-05-20 00:11:00,
2013-05-19 19:21:00,76.0,68.0,29.57,South,173,0.0,0.0,77,0.04,,,0.19,,2013-05-20 00:21:00,
2013-05-19 19:32:00,74.0,65.0,29.58,SSW,203,7.0,7.0,74,0.06,,,0.21,,2013-05-20 00:32:00,
2013-05-19 19:42:00,74.0,65.0,29.58,SSW,203,7.0,7.0,74,0.06,,,0.21,,2013-05-20 00:42:00,
2013-05-19 19:52:00,74.0,65.0,29.58,SSW,203,7.0,7.0,74,0.06,,,0.21,,2013-05-20 00:52:00,
2013-05-19 20:01:00,74.0,65.0,29.58,SSW,203,7.0,7.0,74,0.06,,,0.21,,2013-05-20 01:01:00,
2013-05-19 20:52:00,63.0,60.0,29.61,SW,227,0.0,0.0,91,0.40,,,0.61,,2013-05-20 01:52:00,
2013-05-19 21:02:00,63.0,60.0,29.57,SSW,209,0.0,0.0,91,0.10,,,0.61,,2013-05-20 02:02:00,
2013-05-19 21:11:00,63.0,60.0,29.57,SSW,209,0.0,0.0,91,0.10,,,0.61,,2013-05-20 02:11:00,
2013-05-19 21:21:00,62.0,60.0,29.55,SSW,198,3.0,3.0,92,0.06,,,0.61,,2013-05-20 02:21:00,
2013-05-19 21:31:00,62.0,59.0,29.56,SSW,197,6.0,6.0,91,0.00,,,0.61,,2013-05-20 02:31:00,
2013-05-19 21:42:00,62.0,59.0,29.56,SSW,197,6.0,6.0,91,0.00,,,0.61,,2013-05-20 02:42:00,
2013-05-19 21:51:00,62.0,59.0,29.56,South,180,6.0,6.0,91,0.00,,,0.61,,2013-05-20 02:51:00,
2013-05-19 22:01:00,62.0,59.0,29.57,South,174,4.0,4.0,91,0.00,,,0.61,,2013-05-20 03:01:00,
2013-05-19 22:11:00,62.0,59.0,29.57,South,174,4.0,4.0,91,0.00,,,0.61,,2013-05-20 03:11:00,
2013-05-19 22:21:00,62.0,59.0,29.55,SSE,165,3.0,3.0,91,0.00,,,0.61,,2013-05-20 03:21:00,
2013-05-19 22:33:00,62.0,59.0,29.57,South,189,5.0,5.0,90,0.00,,,0.61,,2013-05-20 03:33:00,
2013-05-19 22:43:00,63.0,60.0,29.59,SW,220,3.0,3.0,89,0.00,,,0.61,,2013-05-20 03:43:00,
2013-05-19 22:52:00,63.0,60.0,29.59,SW,220,3.0,3.0,89,0.00,,,0.61,,2013-05-20 03:52:00,
2013-05-19 23:03:00,63.0,58.0,29.67,WNW,288,0.0,0.0,84,0.01,,,0.62,,2013-05-20 04:03:00,
2013-05-19 23:13:00,63.0,58.0,29.67,WNW,288,0.0,0.0,84,0.01,,,0.62,,2013-05-20 04:13:00,
2013-05-19 23:23:00,63.0,59.0,29.64,SW,231,0.0,0.0,86,0.01,,,0.62,,2013-05-20 04:23:00,
2013-05-19 23:33:00,62.0,57.0,29.61,SW,232,0.0,0.0,84,0.01,,,0.62,,2013-05-20 04:33:00,
2013-05-19 23:42:00,62.0,57.0,29.61,SW,232,0.0,0.0,84,0.01,,,0.62,,2013-05-20 04:42:00,
2013-05-19 23:52:00,62.0,57.0,29.60,SW,232,0.0,0.0,84,0.01,,,0.62,,2013-05-20 04:52:00,